Time;durP1;ratioP1;P1;durP2;ratioP2;P2;SDS_P1;SDS_P2;PMS_P1;PMS_P2;Temp;Humidity;BMP_temperature;BMP_pressure;BME280_temperature;BME280_humidity;BME280_pressure;Samples;Min_cycle;Max_cycle;Signal;HPM_P1;HPM_P2
2021/12/08 00:00:44;;;;;;;9.13;4.43;;;4.00;73.00;;;;;;4965237;28;20183;-75
2021/12/08 00:13:17;;;;;;;9.93;4.53;;;4.10;73.20;;;;;;4962177;28;20491;-74
2021/12/08 00:15:47;;;;;;;8.13;4.40;;;4.10;72.70;;;;;;4971391;28;21003;-75
2021/12/08 00:18:18;;;;;;;7.17;3.80;;;4.20;71.10;;;;;;4972201;28;20447;-75
2021/12/08 00:20:48;;;;;;;9.10;3.90;;;4.10;70.40;;;;;;4968850;28;20771;-74
2021/12/08 00:23:15;;;;;;;6.63;3.73;;;4.20;69.80;;;;;;4972845;28;20479;-74
2021/12/08 00:25:42;;;;;;;7.57;4.50;;;4.20;69.70;;;;;;4970277;28;20451;-75
2021/12/08 00:28:09;;;;;;;7.97;3.20;;;4.20;70.10;;;;;;4983523;28;20921;-75
2021/12/08 00:30:37;;;;;;;7.77;2.87;;;4.20;70.50;;;;;;4991240;28;20434;-75
2021/12/08 00:33:04;;;;;;;5.83;3.20;;;4.20;70.10;;;;;;4965928;28;20434;-73
2021/12/08 00:35:30;;;;;;;5.67;2.40;;;4.10;70.70;;;;;;4981429;28;20498;-74
2021/12/08 00:37:57;;;;;;;6.63;2.30;;;4.00;67.90;;;;;;4964094;28;20443;-73
2021/12/08 00:40:25;;;;;;;3.53;2.30;;;4.00;65.80;;;;;;4963954;28;20518;-73
2021/12/08 00:42:51;;;;;;;3.50;2.40;;;4.10;66.30;;;;;;4973564;28;20835;-74
2021/12/08 00:45:18;;;;;;;5.10;2.80;;;4.10;67.00;;;;;;4966367;28;20437;-75
2021/12/08 00:47:46;;;;;;;3.53;2.57;;;4.10;67.30;;;;;;4966074;28;20496;-73
2021/12/08 00:50:13;;;;;;;3.37;2.50;;;4.10;68.20;;;;;;4962111;28;20806;-73
2021/12/08 00:52:39;;;;;;;3.50;2.60;;;4.10;69.40;;;;;;4965411;28;20509;-74
2021/12/08 00:55:09;;;;;;;3.13;2.00;;;4.20;70.20;;;;;;4965470;28;20534;-74
2021/12/08 00:57:35;;;;;;;3.40;2.20;;;4.20;70.70;;;;;;4975555;28;20447;-74
2021/12/08 01:00:04;;;;;;;3.50;2.30;;;4.20;71.70;;;;;;4968847;28;20514;-74
2021/12/08 01:02:30;;;;;;;8.23;2.43;;;4.00;73.60;;;;;;4973834;28;20415;-75
2021/12/08 01:04:57;;;;;;;4.10;2.63;;;3.70;75.40;;;;;;4969580;28;20951;-75
2021/12/08 01:07:23;;;;;;;4.15;2.38;;;3.50;77.10;;;;;;4973624;28;20206;-72
2021/12/08 01:09:48;;;;;;;5.73;2.70;;;3.40;78.10;;;;;;4968798;28;20578;-73
2021/12/08 01:12:14;;;;;;;5.70;2.80;;;3.20;79.60;;;;;;4965168;28;20415;-73
2021/12/08 01:14:40;;;;;;;3.90;2.47;;;3.10;80.80;;;;;;4966158;28;20271;-74
2021/12/08 01:17:06;;;;;;;4.73;2.53;;;3.20;82.80;;;;;;4967613;28;20462;-72
2021/12/08 01:19:33;;;;;;;4.93;2.60;;;3.20;83.70;;;;;;4971050;28;20188;-74
2021/12/08 01:21:59;;;;;;;4.82;2.20;;;3.10;84.60;;;;;;5020522;28;20464;-74
2021/12/08 01:24:25;;;;;;;4.82;2.40;;;3.00;85.50;;;;;;4973036;28;20501;-74
2021/12/08 01:26:51;;;;;;;4.43;2.10;;;2.90;85.90;;;;;;4969161;28;20183;-75
2021/12/08 01:29:16;;;;;;;3.43;2.63;;;2.90;86.80;;;;;;4975183;28;20350;-73
2021/12/08 01:31:44;;;;;;;3.90;2.60;;;2.80;87.60;;;;;;4979311;28;20203;-74
2021/12/08 01:34:11;;;;;;;4.60;2.80;;;2.70;88.10;;;;;;4965616;28;20286;-74
2021/12/08 01:36:38;;;;;;;3.45;2.70;;;2.70;89.00;;;;;;4966146;28;20462;-74
2021/12/08 01:39:05;;;;;;;5.73;2.47;;;2.80;89.60;;;;;;4968917;28;20234;-73
2021/12/08 01:41:31;;;;;;;5.13;2.70;;;2.80;90.40;;;;;;4964032;28;20419;-73
2021/12/08 01:46:42;;;;;;;3.85;2.65;;;2.90;91.10;;;;;;4962676;28;20257;-74
2021/12/08 01:49:08;;;;;;;4.97;3.10;;;3.00;91.50;;;;;;4969869;28;20203;-74
2021/12/08 01:51:34;;;;;;;5.40;2.83;;;3.10;92.00;;;;;;5035402;28;20517;-75
2021/12/08 01:54:02;;;;;;;5.80;3.10;;;3.10;92.40;;;;;;5026801;28;20426;-74
2021/12/08 01:56:30;;;;;;;3.45;2.38;;;3.20;92.60;;;;;;4969513;28;20215;-74
2021/12/08 01:58:56;;;;;;;4.60;2.55;;;3.20;92.70;;;;;;4962854;28;20421;-74
2021/12/08 02:01:25;;;;;;;3.67;2.73;;;3.20;92.50;;;;;;5011423;28;20257;-75
2021/12/08 02:03:52;;;;;;;9.10;3.03;;;3.20;92.50;;;;;;4967693;28;20419;-72
2021/12/08 02:06:20;;;;;;;5.50;2.87;;;3.20;92.60;;;;;;4957471;28;20443;-73
2021/12/08 02:08:50;;;;;;;6.63;2.87;;;3.30;92.80;;;;;;4965625;28;20541;-72
2021/12/08 02:11:16;;;;;;;6.22;2.60;;;3.30;92.50;;;;;;4963566;28;20441;-74
2021/12/08 02:13:42;;;;;;;4.57;3.00;;;3.30;92.50;;;;;;4965466;28;20605;-74
2021/12/08 02:16:12;;;;;;;4.53;2.93;;;3.30;92.70;;;;;;4961087;28;20470;-73
2021/12/08 02:18:39;;;;;;;4.10;2.75;;;3.30;93.00;;;;;;4963631;28;20211;-75
2021/12/08 02:21:35;;;;;;;3.53;2.70;;;3.30;93.30;;;;;;4966508;28;20199;-74
2021/12/08 02:24:11;;;;;;;5.80;3.17;;;3.40;93.50;;;;;;4969574;28;20262;-76
2021/12/08 02:26:38;;;;;;;5.22;2.53;;;3.40;93.50;;;;;;4968274;28;20788;-74
2021/12/08 02:29:08;;;;;;;5.05;2.80;;;3.50;93.40;;;;;;4969462;28;20210;-75
2021/12/08 02:31:48;;;;;;;5.93;2.77;;;3.50;93.00;;;;;;4965803;28;20191;-74
2021/12/08 02:48:06;;;;;;;3.20;2.20;;;3.60;92.90;;;;;;4964708;28;20316;-74
2021/12/08 02:50:41;;;;;;;3.50;2.50;;;3.60;92.80;;;;;;4965778;28;20948;-74
2021/12/08 02:53:10;;;;;;;4.38;2.78;;;3.60;92.80;;;;;;4961865;28;20423;-74
2021/12/08 02:55:36;;;;;;;4.00;2.43;;;3.60;92.90;;;;;;4964632;28;20223;-74
2021/12/08 02:58:03;;;;;;;4.40;2.93;;;3.60;93.00;;;;;;4960489;28;20447;-75
2021/12/08 03:00:33;;;;;;;5.70;2.80;;;3.60;93.10;;;;;;4966831;28;20426;-74
2021/12/08 03:03:01;;;;;;;7.60;2.88;;;3.60;93.10;;;;;;4985663;28;20414;-75
2021/12/08 03:05:28;;;;;;;4.90;2.80;;;3.60;93.10;;;;;;5006584;28;20187;-74
2021/12/08 03:07:54;;;;;;;5.50;2.67;;;3.60;93.20;;;;;;4959755;28;20442;-75
2021/12/08 03:10:23;;;;;;;2.87;2.40;;;3.70;93.40;;;;;;4968944;28;20443;-74
2021/12/08 03:12:50;;;;;;;5.50;2.97;;;3.70;93.60;;;;;;4960370;28;20430;-73
2021/12/08 03:15:17;;;;;;;4.93;2.83;;;3.70;93.50;;;;;;4960667;28;20435;-74
2021/12/08 03:17:43;;;;;;;6.60;3.30;;;3.60;93.50;;;;;;4956120;28;20509;-74
2021/12/08 03:20:14;;;;;;;4.10;2.50;;;3.50;93.80;;;;;;4961873;28;20820;-75
2021/12/08 03:22:45;;;;;;;3.60;2.63;;;3.50;94.00;;;;;;4968747;28;20434;-75
2021/12/08 03:25:15;;;;;;;3.50;2.57;;;3.50;94.20;;;;;;4968734;28;20426;-74
2021/12/08 03:27:54;;;;;;;5.75;3.10;;;3.60;94.20;;;;;;4963835;28;20453;-76
2021/12/08 03:30:28;;;;;;;5.23;3.17;;;3.60;94.30;;;;;;4966578;28;20233;-74
2021/12/08 03:32:57;;;;;;;3.90;2.90;;;3.60;94.30;;;;;;4958278;28;20414;-74
2021/12/08 03:35:24;;;;;;;6.77;3.90;;;3.60;94.30;;;;;;4961590;28;20996;-72
2021/12/08 03:37:51;;;;;;;4.40;3.00;;;3.60;94.40;;;;;;4968510;28;20442;-72
2021/12/08 03:40:21;;;;;;;4.87;2.73;;;3.60;94.50;;;;;;4973122;28;20194;-72
2021/12/08 03:42:49;;;;;;;4.17;3.03;;;3.70;94.60;;;;;;4972781;28;20515;-72
2021/12/08 03:45:18;;;;;;;6.30;3.00;;;3.70;94.60;;;;;;4967201;28;20952;-72
2021/12/08 03:47:47;;;;;;;11.20;3.40;;;3.70;94.80;;;;;;4980014;28;20438;-72
2021/12/08 03:50:15;;;;;;;4.63;3.10;;;3.80;94.90;;;;;;4973169;28;20472;-73
2021/12/08 03:52:42;;;;;;;4.63;2.80;;;3.80;95.00;;;;;;4966238;28;20198;-72
2021/12/08 03:55:14;;;;;;;5.00;3.20;;;3.90;95.00;;;;;;4967518;28;20426;-71
2021/12/08 03:57:40;;;;;;;5.10;3.40;;;3.90;95.00;;;;;;4979200;28;20462;-71
2021/12/08 04:00:11;;;;;;;5.20;3.27;;;3.90;95.00;;;;;;5003977;28;20450;-72
2021/12/08 04:02:36;;;;;;;5.27;3.27;;;3.90;95.00;;;;;;4979753;28;20419;-73
2021/12/08 04:05:03;;;;;;;9.47;3.23;;;3.90;95.00;;;;;;4965194;28;20429;-72
2021/12/08 04:07:31;;;;;;;4.63;3.20;;;3.90;95.00;;;;;;4972644;28;20210;-72
2021/12/08 04:09:57;;;;;;;10.23;3.67;;;3.90;95.30;;;;;;5017725;28;20470;-72
2021/12/08 04:12:23;;;;;;;4.03;3.47;;;4.00;95.40;;;;;;4970683;28;20419;-72
2021/12/08 04:14:57;;;;;;;5.73;3.30;;;4.00;95.30;;;;;;4971549;28;20418;-73
2021/12/08 04:17:35;;;;;;;15.87;3.60;;;4.00;95.40;;;;;;4961249;28;20836;-73
2021/12/08 04:20:18;;;;;;;5.93;3.83;;;4.00;95.40;;;;;;4965929;28;20506;-73
2021/12/08 04:22:48;;;;;;;6.50;3.97;;;4.00;95.50;;;;;;4970753;28;20912;-72
2021/12/08 04:25:22;;;;;;;7.60;3.67;;;4.10;95.50;;;;;;4972369;28;20415;-75
2021/12/08 04:27:50;;;;;;;4.30;3.60;;;4.10;95.50;;;;;;4973714;28;20437;-74
2021/12/08 04:30:25;;;;;;;4.90;3.37;;;4.10;95.50;;;;;;4975090;28;20430;-73
2021/12/08 04:32:51;;;;;;;5.20;3.47;;;4.10;95.60;;;;;;5037953;28;20413;-75
2021/12/08 04:35:19;;;;;;;7.80;4.00;;;4.10;95.60;;;;;;4983822;28;20433;-74
2021/12/08 04:37:51;;;;;;;10.07;4.07;;;4.10;95.60;;;;;;4970585;28;20446;-75
2021/12/08 04:40:46;;;;;;;6.83;3.70;;;4.10;95.50;;;;;;4971275;28;20422;-74
2021/12/08 04:44:01;;;;;;;5.23;3.43;;;4.20;95.50;;;;;;4964860;28;20577;-73
2021/12/08 04:46:22;;;;;;;7.07;4.33;;;4.20;95.70;;;;;;4973369;28;20554;-73
2021/12/08 05:00:46;;;;;;;6.47;4.20;;;4.30;96.10;;;;;;4972379;28;20456;-73
2021/12/08 05:08:43;;;;;;;9.43;5.47;;;4.40;96.20;;;;;;4964471;28;20461;-73
2021/12/08 05:11:15;;;;;;;9.93;4.50;;;4.40;96.30;;;;;;4963257;28;20446;-73
2021/12/08 05:13:42;;;;;;;9.07;4.83;;;4.40;96.30;;;;;;5011463;28;20703;-73
2021/12/08 05:16:09;;;;;;;7.20;4.43;;;4.40;96.30;;;;;;4967935;28;20968;-75
2021/12/08 05:18:39;;;;;;;11.70;4.67;;;4.40;96.30;;;;;;4963071;28;21164;-74
2021/12/08 05:21:11;;;;;;;6.23;4.77;;;4.40;96.30;;;;;;4960260;28;20452;-74
2021/12/08 05:23:53;;;;;;;7.57;4.73;;;4.40;96.20;;;;;;4970284;28;20429;-74
2021/12/08 05:26:32;;;;;;;12.73;4.63;;;4.40;96.30;;;;;;4994047;28;20418;-72
2021/12/08 05:29:05;;;;;;;10.47;5.20;;;4.40;96.30;;;;;;4969935;28;20443;-73
2021/12/08 05:31:32;;;;;;;9.63;5.10;;;4.40;96.30;;;;;;4969164;28;20430;-73
2021/12/08 05:33:59;;;;;;;9.13;5.20;;;4.40;96.30;;;;;;4969705;28;20434;-72
2021/12/08 05:36:26;;;;;;;8.53;4.50;;;4.40;96.40;;;;;;4962789;28;20883;-74
2021/12/08 05:38:54;;;;;;;7.90;5.37;;;4.40;96.60;;;;;;4960082;28;20791;-74
2021/12/08 05:41:28;;;;;;;8.60;5.23;;;4.50;96.70;;;;;;4960336;28;20510;-72
2021/12/08 05:43:55;;;;;;;8.50;5.60;;;4.50;96.70;;;;;;4963816;28;20422;-72
2021/12/08 05:46:24;;;;;;;14.03;6.60;;;4.40;96.70;;;;;;4970553;28;20454;-72
2021/12/08 05:48:51;;;;;;;14.10;6.27;;;4.30;96.80;;;;;;4978966;28;20437;-75
2021/12/08 05:51:29;;;;;;;11.63;6.77;;;4.30;96.90;;;;;;4979728;28;20435;-74
2021/12/08 05:54:00;;;;;;;9.90;6.37;;;4.20;97.30;;;;;;4959477;28;20940;-73
2021/12/08 05:56:27;;;;;;;10.83;6.30;;;4.20;97.60;;;;;;4960586;28;20470;-73
2021/12/08 05:58:55;;;;;;;12.23;6.37;;;4.20;97.80;;;;;;4986776;28;20445;-74
2021/12/08 06:01:30;;;;;;;9.43;5.50;;;4.30;98.00;;;;;;4963500;28;20435;-74
2021/12/08 06:03:59;;;;;;;9.53;6.00;;;4.40;98.10;;;;;;4967100;28;20982;-74
2021/12/08 06:06:26;;;;;;;11.23;6.60;;;4.60;98.20;;;;;;5000250;28;20466;-74
2021/12/08 06:08:52;;;;;;;8.77;6.10;;;4.60;98.10;;;;;;4988327;28;20474;-74
2021/12/08 06:11:18;;;;;;;13.87;6.70;;;4.60;98.00;;;;;;5002178;28;20439;-74
2021/12/08 06:13:47;;;;;;;11.13;5.97;;;4.60;97.90;;;;;;5003022;28;20418;-72
2021/12/08 06:16:15;;;;;;;10.13;5.40;;;4.70;97.70;;;;;;4955554;28;20475;-73
2021/12/08 06:18:42;;;;;;;12.10;6.47;;;4.80;97.60;;;;;;4960784;28;20473;-73
2021/12/08 06:21:12;;;;;;;12.17;6.37;;;4.80;97.50;;;;;;4963776;28;20450;-74
2021/12/08 06:23:39;;;;;;;10.30;6.20;;;4.90;97.10;;;;;;4955874;28;20817;-73
2021/12/08 06:26:06;;;;;;;9.43;5.40;;;4.90;96.90;;;;;;4956497;28;21123;-74
2021/12/08 06:28:32;;;;;;;8.67;5.50;;;4.90;96.70;;;;;;4954130;28;20988;-74
2021/12/08 06:30:57;;;;;;;12.83;7.33;;;4.90;96.70;;;;;;4966709;28;20423;-74
2021/12/08 06:33:23;;;;;;;9.60;5.70;;;5.00;96.70;;;;;;4968819;28;20442;-74
2021/12/08 06:35:59;;;;;;;10.57;5.90;;;5.00;96.90;;;;;;4965924;28;20474;-72
2021/12/08 06:38:26;;;;;;;8.40;5.57;;;5.00;96.90;;;;;;4963595;28;20450;-74
2021/12/08 06:41:27;;;;;;;7.50;5.17;;;5.10;97.10;;;;;;4962849;28;20434;-74
2021/12/08 06:43:57;;;;;;;8.47;5.27;;;5.10;96.90;;;;;;4960367;28;20581;-73
2021/12/08 06:46:24;;;;;;;12.43;6.00;;;5.10;96.80;;;;;;4951068;28;20455;-72
2021/12/08 06:48:56;;;;;;;10.57;5.37;;;5.10;96.80;;;;;;4953810;28;20546;-72
2021/12/08 06:51:28;;;;;;;10.70;6.07;;;5.00;96.80;;;;;;4947263;28;20427;-73
2021/12/08 06:53:58;;;;;;;8.70;6.03;;;5.10;96.80;;;;;;4933720;28;21288;-71
2021/12/08 06:56:30;;;;;;;12.03;5.87;;;5.10;96.70;;;;;;4985160;28;20468;-72
2021/12/08 06:58:59;;;;;;;9.47;5.70;;;5.10;96.60;;;;;;4935715;28;20461;-73
2021/12/08 07:07:01;;;;;;;10.23;5.90;;;5.10;96.80;;;;;;4955072;28;20444;-72
2021/12/08 07:09:29;;;;;;;12.27;6.27;;;5.10;96.70;;;;;;5009285;28;21031;-71
2021/12/08 07:11:58;;;;;;;8.03;4.13;;;5.10;96.60;;;;;;4936621;28;20450;-73
2021/12/08 07:14:25;;;;;;;7.63;4.40;;;5.10;96.70;;;;;;4954439;28;20468;-73
2021/12/08 07:16:55;;;;;;;7.90;3.73;;;5.00;96.60;;;;;;4937367;28;21012;-72
2021/12/08 07:19:34;;;;;;;7.60;4.13;;;5.00;96.50;;;;;;4948107;28;20981;-70
2021/12/08 07:22:05;;;;;;;6.63;4.23;;;5.00;96.40;;;;;;4975118;28;20433;-74
2021/12/08 07:24:39;;;;;;;8.17;4.10;;;5.00;96.40;;;;;;4961361;28;20427;-71
2021/12/08 07:27:12;;;;;;;7.77;4.03;;;5.10;96.50;;;;;;4961554;28;20561;-72
2021/12/08 07:29:40;;;;;;;8.53;4.30;;;5.10;96.50;;;;;;5011355;28;20426;-72
2021/12/08 07:32:29;;;;;;;7.87;4.67;;;5.10;96.30;;;;;;4962043;28;20462;-73
2021/12/08 07:34:57;;;;;;;5.90;4.40;;;5.10;96.30;;;;;;4953360;28;20869;-72
2021/12/08 07:37:27;;;;;;;10.90;5.27;;;5.20;96.20;;;;;;4963913;28;20607;-73
2021/12/08 07:40:14;;;;;;;9.97;5.50;;;5.30;96.20;;;;;;4962707;28;20423;-72
2021/12/08 07:43:09;;;;;;;9.57;5.07;;;5.30;96.00;;;;;;4965238;28;20418;-72
2021/12/08 07:46:03;;;;;;;10.10;5.57;;;5.30;95.90;;;;;;4964906;28;20539;-72
2021/12/08 07:48:34;;;;;;;8.43;5.37;;;5.30;96.00;;;;;;4960374;28;20466;-72
2021/12/08 07:51:26;;;;;;;10.27;5.13;;;5.30;96.00;;;;;;4958855;28;20500;-73
2021/12/08 07:53:52;;;;;;;9.30;5.57;;;5.40;96.00;;;;;;4960479;28;20428;-72
2021/12/08 07:56:21;;;;;;;10.20;6.00;;;5.40;95.90;;;;;;4990663;28;20831;-71
2021/12/08 07:58:56;;;;;;;9.53;6.27;;;5.40;95.90;;;;;;4961608;28;20469;-72
2021/12/08 08:01:27;;;;;;;13.20;6.17;;;5.30;95.70;;;;;;4964390;28;20795;-71
2021/12/08 08:03:53;;;;;;;10.90;5.83;;;5.30;95.60;;;;;;4965308;28;20434;-71
2021/12/08 08:06:25;;;;;;;8.93;5.60;;;5.30;95.50;;;;;;4965612;28;20493;-71
2021/12/08 08:08:51;;;;;;;11.43;5.37;;;5.40;95.60;;;;;;4978454;28;20808;-71
2021/12/08 08:11:30;;;;;;;9.63;5.67;;;5.40;95.80;;;;;;5025641;28;20426;-73
2021/12/08 08:13:56;;;;;;;11.80;6.30;;;5.40;95.80;;;;;;4971440;28;20972;-71
2021/12/08 08:16:28;;;;;;;8.87;5.60;;;5.40;95.80;;;;;;4966306;28;20497;-71
2021/12/08 08:19:03;;;;;;;8.20;5.10;;;5.50;95.80;;;;;;4965183;28;20438;-72
2021/12/08 08:21:33;;;;;;;8.30;5.13;;;5.50;95.80;;;;;;4964361;28;20434;-72
2021/12/08 08:24:00;;;;;;;8.47;5.43;;;5.50;95.60;;;;;;4963259;28;20627;-71
2021/12/08 08:26:28;;;;;;;8.73;5.83;;;5.60;95.50;;;;;;4967955;28;20427;-72
2021/12/08 08:28:54;;;;;;;16.63;5.77;;;5.60;95.40;;;;;;5006921;28;20450;-71
2021/12/08 08:31:30;;;;;;;7.90;4.60;;;5.50;95.30;;;;;;5004084;28;20487;-72
2021/12/08 08:33:56;;;;;;;11.70;5.83;;;5.60;95.40;;;;;;4997632;28;20862;-73
2021/12/08 08:36:29;;;;;;;9.80;5.70;;;5.70;95.40;;;;;;4972827;28;20819;-71
2021/12/08 08:39:04;;;;;;;12.77;5.40;;;5.70;95.10;;;;;;4999335;28;20433;-73
2021/12/08 08:41:40;;;;;;;8.67;6.37;;;5.70;95.10;;;;;;5040491;28;20853;-73
2021/12/08 08:44:13;;;;;;;9.90;5.70;;;5.70;95.00;;;;;;5015091;28;20516;-72
2021/12/08 08:46:43;;;;;;;10.77;5.40;;;5.60;94.80;;;;;;4986700;28;20431;-72
2021/12/08 08:49:13;;;;;;;10.43;5.43;;;5.60;95.00;;;;;;5003258;28;20454;-73
2021/12/08 08:51:46;;;;;;;13.17;5.77;;;5.70;95.00;;;;;;4982764;28;20450;-71
2021/12/08 08:54:20;;;;;;;12.73;5.57;;;5.70;94.60;;;;;;4990370;28;20479;-73
2021/12/08 08:56:55;;;;;;;8.60;4.93;;;5.70;94.50;;;;;;4964067;28;20475;-72
2021/12/08 08:59:25;;;;;;;10.63;5.67;;;5.70;94.30;;;;;;5006760;28;20445;-72
2021/12/08 09:01:55;;;;;;;9.27;5.83;;;5.60;94.20;;;;;;4963372;28;20451;-74
2021/12/08 09:04:31;;;;;;;9.17;6.30;;;5.50;94.20;;;;;;4979900;28;20513;-76
2021/12/08 09:07:02;;;;;;;8.40;4.90;;;5.50;94.30;;;;;;4962355;28;20426;-74
2021/12/08 09:09:34;;;;;;;8.30;5.60;;;5.50;94.50;;;;;;4963904;28;20482;-75
2021/12/08 09:12:17;;;;;;;12.40;5.50;;;5.60;94.60;;;;;;5047545;28;20892;-75
2021/12/08 09:14:55;;;;;;;12.20;6.10;;;5.60;94.70;;;;;;5015741;28;20449;-74
2021/12/08 09:17:28;;;;;;;8.40;5.60;;;5.60;94.60;;;;;;4982123;28;20452;-73
2021/12/08 09:20:08;;;;;;;12.40;5.90;;;5.70;94.60;;;;;;4988633;28;20431;-75
2021/12/08 09:22:54;;;;;;;11.73;5.80;;;5.70;94.50;;;;;;4976053;28;20429;-73
2021/12/08 09:25:30;;;;;;;12.50;5.70;;;5.70;94.40;;;;;;5040323;28;20472;-73
2021/12/08 09:28:03;;;;;;;8.47;5.40;;;5.70;94.50;;;;;;4998511;28;20449;-74
2021/12/08 09:30:40;;;;;;;8.07;4.93;;;5.80;94.30;;;;;;4960013;28;20424;-74
2021/12/08 09:33:11;;;;;;;9.03;5.43;;;5.90;94.20;;;;;;5008134;28;20909;-75
2021/12/08 09:35:43;;;;;;;12.53;5.60;;;5.70;93.80;;;;;;5018248;28;20538;-73
2021/12/08 09:38:22;;;;;;;6.77;5.00;;;5.70;94.00;;;;;;5009930;28;20438;-74
2021/12/08 09:40:58;;;;;;;10.43;4.80;;;5.80;93.90;;;;;;4999045;28;20422;-73
2021/12/08 09:43:33;;;;;;;9.67;5.47;;;5.80;93.70;;;;;;4982239;28;20494;-72
2021/12/08 09:46:07;;;;;;;7.40;5.00;;;5.80;93.30;;;;;;4962931;28;20418;-73
2021/12/08 09:48:36;;;;;;;10.20;5.83;;;5.80;93.10;;;;;;4997555;28;20554;-71
2021/12/08 09:51:02;;;;;;;10.00;5.30;;;5.80;93.30;;;;;;4968724;28;20494;-70
2021/12/08 09:53:28;;;;;;;10.53;5.80;;;5.80;93.40;;;;;;4959777;28;20428;-70
2021/12/08 09:55:55;;;;;;;11.03;5.20;;;5.90;93.40;;;;;;4970287;28;20595;-72
2021/12/08 09:58:20;;;;;;;10.70;5.27;;;5.90;93.20;;;;;;5030497;28;20265;-71
2021/12/08 10:00:55;;;;;;;9.97;5.50;;;5.90;93.10;;;;;;4970091;28;20840;-71
2021/12/08 10:03:20;;;;;;;11.97;6.30;;;6.00;93.10;;;;;;4963496;28;20458;-71
2021/12/08 10:05:46;;;;;;;8.47;5.10;;;6.00;92.90;;;;;;5010996;28;20422;-72
2021/12/08 10:08:12;;;;;;;10.23;5.03;;;6.00;92.80;;;;;;5015836;28;20820;-73
2021/12/08 10:10:41;;;;;;;14.83;5.33;;;6.10;92.60;;;;;;5002097;28;20442;-72
2021/12/08 10:13:08;;;;;;;8.93;5.23;;;6.10;92.40;;;;;;4965994;28;20184;-71
2021/12/08 10:15:34;;;;;;;8.73;5.20;;;6.10;92.40;;;;;;4994380;28;20470;-71
2021/12/08 10:18:00;;;;;;;7.80;4.93;;;6.10;92.50;;;;;;5000210;28;20443;-73
2021/12/08 10:20:33;;;;;;;9.40;5.00;;;6.20;92.30;;;;;;4995512;28;20476;-70
2021/12/08 10:23:17;;;;;;;7.50;5.50;;;6.20;92.40;;;;;;4961790;28;20917;-71
2021/12/08 10:25:47;;;;;;;8.60;5.07;;;6.30;92.50;;;;;;4964386;28;20517;-70
2021/12/08 10:28:40;;;;;;;6.57;4.07;;;6.30;92.30;;;;;;4963355;28;20888;-72
2021/12/08 10:31:16;;;;;;;8.40;4.53;;;6.30;92.00;;;;;;5038202;28;20831;-72
2021/12/08 10:34:08;;;;;;;7.97;4.97;;;6.30;91.90;;;;;;5030169;28;20455;-71
2021/12/08 10:36:49;;;;;;;5.90;4.47;;;6.30;91.70;;;;;;5025051;28;20479;-73
2021/12/08 10:39:24;;;;;;;8.17;4.57;;;6.30;91.70;;;;;;5028910;28;20626;-71
2021/12/08 10:41:52;;;;;;;7.90;4.47;;;6.30;92.00;;;;;;5033925;28;20422;-71
2021/12/08 10:44:25;;;;;;;6.67;4.57;;;6.40;91.80;;;;;;5029082;28;20427;-72
2021/12/08 10:46:55;;;;;;;6.27;4.33;;;6.20;91.60;;;;;;5037486;28;20427;-70
2021/12/08 10:54:23;;;;;;;5.77;3.90;;;6.10;91.80;;;;;;5033042;28;20439;-72
2021/12/08 10:54:54;;;;;;;6.30;3.57;;;5.90;92.30;;;;;;5024532;28;20422;-72
2021/12/08 10:57:33;;;;;;;6.40;4.00;;;5.90;92.30;;;;;;5015865;28;20833;-72
2021/12/08 11:00:22;;;;;;;6.30;4.03;;;5.80;92.30;;;;;;5029648;28;20558;-73
2021/12/08 11:02:53;;;;;;;6.73;4.03;;;5.80;92.50;;;;;;5022515;28;20518;-72
2021/12/08 11:05:25;;;;;;;7.83;4.57;;;5.80;92.70;;;;;;5038141;28;20573;-72
2021/12/08 11:08:02;;;;;;;6.43;4.10;;;5.70;92.70;;;;;;5003432;28;20451;-73
2021/12/08 11:10:32;;;;;;;7.20;4.67;;;5.70;92.90;;;;;;5004420;28;20446;-72
2021/12/08 11:12:59;;;;;;;4.87;3.60;;;5.70;93.10;;;;;;4963740;28;20428;-72
2021/12/08 11:15:27;;;;;;;8.97;5.27;;;5.80;93.20;;;;;;4996013;28;20453;-73
2021/12/08 11:18:22;;;;;;;20.43;6.43;;;5.90;93.00;;;;;;4960525;28;20533;-73
2021/12/08 11:21:00;;;;;;;7.67;4.47;;;5.80;92.70;;;;;;4970782;28;20845;-72
2021/12/08 11:23:47;;;;;;;10.90;4.80;;;5.80;92.90;;;;;;4965555;28;20955;-73
2021/12/08 11:26:37;;;;;;;6.83;4.27;;;5.90;93.10;;;;;;4958263;28;20526;-72
2021/12/08 11:29:09;;;;;;;6.93;4.27;;;5.90;92.90;;;;;;4960211;28;20450;-72
2021/12/08 11:31:39;;;;;;;6.27;3.67;;;6.00;92.90;;;;;;5000319;28;20999;-73
2021/12/08 11:34:13;;;;;;;7.00;4.40;;;6.10;92.90;;;;;;4961870;28;20419;-73
2021/12/08 11:36:39;;;;;;;4.80;3.67;;;6.20;92.90;;;;;;4965028;28;20470;-74
2021/12/08 11:39:16;;;;;;;7.80;4.57;;;6.20;92.30;;;;;;4959392;28;20447;-73
2021/12/08 11:41:46;;;;;;;7.63;4.47;;;6.30;92.20;;;;;;4977122;28;20972;-71
2021/12/08 11:44:18;;;;;;;7.10;3.80;;;6.40;92.00;;;;;;4962331;28;20423;-73
2021/12/08 11:46:50;;;;;;;6.40;3.80;;;6.40;91.70;;;;;;4963886;28;20427;-72
2021/12/08 11:49:17;;;;;;;6.20;3.83;;;6.50;91.30;;;;;;4957059;28;20489;-72
2021/12/08 11:51:43;;;;;;;4.80;3.50;;;6.30;91.10;;;;;;4964104;28;20541;-73
2021/12/08 11:54:31;;;;;;;4.93;3.57;;;6.20;91.50;;;;;;4958875;28;20442;-72
2021/12/08 11:57:10;;;;;;;5.70;3.70;;;6.20;91.80;;;;;;4992546;28;20211;-72
2021/12/08 12:00:00;;;;;;;8.07;4.73;;;6.30;91.80;;;;;;4961766;28;20912;-72
2021/12/08 12:02:56;;;;;;;5.43;3.90;;;6.50;91.70;;;;;;4966131;28;20426;-74
2021/12/08 12:05:27;;;;;;;5.90;4.00;;;6.50;91.40;;;;;;4959109;28;20983;-74
2021/12/08 12:07:54;;;;;;;6.73;4.23;;;6.50;91.30;;;;;;4961742;28;20446;-73
2021/12/08 12:10:22;;;;;;;11.90;4.90;;;6.40;91.30;;;;;;4959705;28;20531;-73
2021/12/08 12:12:48;;;;;;;8.70;4.80;;;6.40;91.30;;;;;;4967067;28;20427;-72
2021/12/08 12:15:18;;;;;;;8.73;4.50;;;6.30;91.50;;;;;;4962855;28;20944;-73
2021/12/08 12:17:45;;;;;;;7.07;4.63;;;6.30;91.90;;;;;;4969107;28;20258;-72
2021/12/08 12:20:18;;;;;;;6.10;4.37;;;6.40;91.90;;;;;;4966677;28;20477;-73
2021/12/08 12:22:56;;;;;;;6.93;4.37;;;6.50;92.00;;;;;;4966127;28;20420;-72
2021/12/08 12:25:53;;;;;;;8.63;5.27;;;6.50;91.50;;;;;;4965701;28;20452;-71
2021/12/08 12:28:40;;;;;;;6.10;4.63;;;6.50;91.40;;;;;;5023706;28;20463;-73
2021/12/08 12:31:19;;;;;;;7.53;4.37;;;6.50;91.40;;;;;;4968680;28;20445;-73
2021/12/08 12:33:48;;;;;;;7.90;4.10;;;6.50;91.50;;;;;;4976192;28;20434;-73
2021/12/08 12:36:39;;;;;;;8.10;5.07;;;6.60;91.60;;;;;;4964111;28;21060;-72
2021/12/08 12:39:18;;;;;;;8.37;4.97;;;6.50;91.50;;;;;;4961603;28;20659;-72
2021/12/08 12:41:56;;;;;;;9.57;5.30;;;6.50;91.60;;;;;;4967172;28;20427;-73
2021/12/08 12:44:28;;;;;;;6.00;4.80;;;6.50;91.80;;;;;;4960717;28;20794;-73
2021/12/08 12:49:35;;;;;;;9.07;4.87;;;6.60;91.60;;;;;;4956876;28;20428;-74
2021/12/08 12:52:09;;;;;;;10.77;5.60;;;6.40;91.20;;;;;;4965196;28;20562;-73
2021/12/08 12:54:35;;;;;;;8.13;4.53;;;6.30;92.00;;;;;;4961428;28;20956;-74
2021/12/08 12:57:06;;;;;;;10.17;6.33;;;6.30;92.40;;;;;;4957883;28;20527;-72
2021/12/08 12:59:42;;;;;;;12.40;6.07;;;6.10;92.00;;;;;;4968015;28;20426;-72
2021/12/08 13:02:12;;;;;;;9.43;5.83;;;5.80;92.50;;;;;;4961563;28;20920;-72
2021/12/08 13:05:18;;;;;;;10.90;5.80;;;5.80;93.00;;;;;;4954724;28;20813;-73
2021/12/08 13:07:57;;;;;;;9.97;6.40;;;5.80;93.00;;;;;;4960843;28;20873;-73
2021/12/08 13:10:32;;;;;;;12.10;6.93;;;5.90;93.10;;;;;;4990140;28;20536;-72
2021/12/08 13:13:18;;;;;;;10.87;6.00;;;5.90;93.10;;;;;;4955143;28;20459;-73
2021/12/08 13:15:45;;;;;;;11.23;5.73;;;5.90;93.10;;;;;;4962393;28;20982;-73
2021/12/08 13:18:16;;;;;;;10.90;6.40;;;5.90;93.10;;;;;;4958173;28;21248;-73
2021/12/08 13:21:09;;;;;;;10.07;6.23;;;6.00;93.20;;;;;;4965853;28;20952;-72
2021/12/08 13:23:43;;;;;;;11.93;6.07;;;6.10;93.30;;;;;;4959464;28;20882;-73
2021/12/08 13:26:19;;;;;;;10.07;5.73;;;6.20;92.90;;;;;;4955386;28;20638;-73
2021/12/08 13:31:36;;;;;;;9.47;5.20;;;6.40;92.50;;;;;;4955649;28;20476;-72
2021/12/08 13:34:07;;;;;;;10.57;5.40;;;6.40;92.00;;;;;;4952212;28;20435;-73
2021/12/08 13:36:35;;;;;;;8.77;5.67;;;6.40;91.80;;;;;;4959859;28;21007;-73
2021/12/08 13:39:03;;;;;;;9.50;5.40;;;6.40;92.00;;;;;;4956581;28;20992;-72
2021/12/08 13:41:32;;;;;;;7.97;5.27;;;6.50;92.10;;;;;;4957978;28;20797;-72
2021/12/08 13:43:58;;;;;;;8.63;5.83;;;6.50;92.30;;;;;;4961076;28;20483;-72
2021/12/08 13:46:46;;;;;;;10.00;5.73;;;6.50;92.50;;;;;;4954613;28;20442;-72
2021/12/08 13:49:14;;;;;;;10.37;5.17;;;6.50;92.80;;;;;;4959623;28;20466;-73
2021/12/08 13:51:41;;;;;;;8.57;5.87;;;6.60;92.80;;;;;;4953681;28;20443;-72
2021/12/08 13:54:28;;;;;;;13.00;7.50;;;6.60;92.80;;;;;;4962974;28;20435;-72
2021/12/08 13:56:55;;;;;;;8.47;5.47;;;6.60;92.90;;;;;;4962208;28;20477;-72
2021/12/08 13:59:58;;;;;;;10.60;6.27;;;6.60;92.80;;;;;;4955316;28;20447;-72
2021/12/08 14:02:45;;;;;;;10.07;6.53;;;6.60;92.90;;;;;;4970812;28;20431;-73
2021/12/08 14:05:14;;;;;;;10.93;6.70;;;6.60;93.10;;;;;;5005710;28;20459;-72
2021/12/08 14:07:49;;;;;;;14.20;7.17;;;6.60;93.10;;;;;;5051562;28;20955;-72
2021/12/08 14:10:19;;;;;;;13.90;6.57;;;6.60;93.00;;;;;;5004633;28;20451;-72
2021/12/08 14:12:53;;;;;;;15.13;7.87;;;6.50;93.00;;;;;;5046200;28;20491;-73
2021/12/08 14:15:37;;;;;;;12.20;7.13;;;6.50;93.00;;;;;;5002372;28;20872;-72
2021/12/08 14:18:14;;;;;;;14.60;7.77;;;6.50;93.20;;;;;;5006425;28;20522;-72